North Conway, New Hampshire
Current Conditions -  °F | °C
As of 11:54 PM on Friday 21 Nov 2014 (Local Time) from KIZG Reporting Station
Clear Clear  
Wind Chill: -11°   Ceiling: Unl
Heat Index: -5°   Visibility: 10mi
Dew Point: -15°   Wind: 9mph
Humidity: 46%   Direction: 290°WNW
Pressure: 30.3"   Gusts: 20mph
Location:  44.05°N, 71.13°W
Report Text: KIZG 220454Z AUTO 29008G17KT 260V330 10SM CLR M05/M15 A3030 RMK AO2 SLP269 T10501150 410171061
Loading
Personal Weather Stations






























Interactive Weather Map New forecast layout! Learn more

10-Day Weather Forecast

Advertisements
Track Severe Weather on mobile